Portada
METAR-TAF:

METAR-TAF

Aeroports :

Delaware County Airport (Johnson Field)

Muncie, Indiana, Estats Units d'Amèrica

latitud: 40-14-03N, longitud: 085-23-37W, altitud: 285 m

Observació

L'informe es va fer fa 1 hora i 0 minuts, a les 05:53 UTC
Vent 11 kt del Sud-Oest amb ràfegues de 21 kt
Temperatura 28°C
Humitat 55%
Pressió 1009 hPa
Visibilitat: 16.1 km
Cel clar

METAR: KMIE 230553Z AUTO 22011G21KT 10SM CLR 28/18 A2981 RMK AO2 SLP081 T02780178 10317 20278 56017

Hora: 02:53 (06:53 UTC)


TAF: manca

Observacions i pronòstics meteorològics de més de 4000 aeroports (METAR i TAF).

Les estacions disponibles són els punts grocs i vermells al mapa.

Posi el ratolí al punt desitjat per veure el nom de l'estació.

Feu clic per veure les observacions i els pronòstics meteorològics.

Per canviar el mapa: feu clic els botons verds amb una creu de color negre per apropar; al botó verd amb un guió per allunyar la imatge; o en les fletxes verdes per a mapes adjacents.


METAR-TAF: